Saba, Netherlands

2:25 AM AST on April 26, 2017 (GMT -0400)
IDUTCHCA4 | | Change Station

Elev 575 ft 17.48 °N, 62.97 °W | Updated 50 seconds ago

Clear
Clear
76.0 °F
Feels Like 77 °F
N
7.0
Wind Variable Wind from East

Today
High -- | Low -- °F
--% Chance of Precip.
Yesterday
High -- | Low -- °F
Precip. -- in
Pressure 29.95 in
Visibility 6.2 miles
Clouds Few 1800 ft
Heat Index 77 °F
Dew Point 71 °F
Humidity 85%
Rainfall 0.00 in
Snow Depth Not available.
5:49 AM 6:32 PM
Waning Crescent, 0% visible
METAR TNCM 260600Z 10007KT 070V130 9999 FEW018 26/23 Q1014 A2995
Pressure 29.95 in
Visibility 6.2 miles
Clouds Few 1800 ft
Heat Index 77 °F
Dew Point 71 °F
Humidity 85%
Rainfall 0.00 in
Snow Depth Not available.
5:49 AM 6:32 PM
Waning Crescent, 0% visible
METAR TNCM 260600Z 10007KT 070V130 9999 FEW018 26/23 Q1014 A2995

Get Severe Weather Alerts

Thanks for signing up!

Be on the lookout for a verification email in your inbox.

You'll start receiving the daily forecast at 8 AM.

×

10-Day Weather Forecast

×

Almanac

Astronomy

Apr. 26, 2017 Rise Set
Actual Time
Civil Twilight
Nautical Twilight
Astronomical Twilight
Moon
Length of Visible Light
Length of Day
Tomorrow will be .
, % of the Moon is Illuminated

Today's Extremes

Country Highs Country Lows

Community

WunderPhotos

WunderBlog® & News

Nearby

Air Quality

  Air Quality AQ Index Pollutant
Not available.

Snow Depth

Station Depth Elevation

Earthquake Activity

City Distance Mag. Time & Date
Minimum magnitude displayed is 2.5.

Coastal Water Temperatures

Place Temperature

Stations

Nearby Weather Stations

Station Location Temp. Windchill Dew Point Humidity Wind Precip. Elev Updated Type